Keller Corner, Texas
Current Conditions -  °F | °C
As of 8:53 AM on Sunday 21 Dec 2014 (Local Time) from KBRO Reporting Station
Haze Haze  
Wind Chill: 60°   Ceiling: 600
Heat Index: 60°   Visibility: 5mi
Dew Point: 57°   Wind: 7mph
Humidity: 90%   Direction: 350°N
Pressure: 30.07"   Gusts: NA
Location:  26.0002°N, 97.5729°W
Report Text: KBRO 211453Z 35006KT 5SM BR BKN006 OVC039 16/14 A3007 RMK AO2 RAB30E53 SLP181 P0000 60000 T01560139 51010
Loading
Personal Weather Stations






























Interactive Weather Map New forecast layout! Learn more

10-Day Weather Forecast

Advertisements
Track Severe Weather on mobile